Time;durP1;ratioP1;P1;durP2;ratioP2;P2;SDS_P1;SDS_P2;PMS_P1;PMS_P2;Temp;Humidity;BMP_temperature;BMP_pressure;BME280_temperature;BME280_humidity;BME280_pressure;Samples;Min_cycle;Max_cycle;Signal;HPM_P1;HPM_P2
2022/01/19 00:02:12;;;;;;;12.43;7.43;;;;;;;-141.59;100.00;61776.25;4940547;28;20231;-84
2022/01/19 00:04:41;;;;;;;12.13;7.17;;;;;;;-141.59;100.00;61776.25;4948010;28;20197;-84
2022/01/19 00:07:08;;;;;;;14.13;7.27;;;;;;;-141.59;100.00;61776.25;4937801;28;20245;-85
2022/01/19 00:09:35;;;;;;;13.90;7.90;;;;;;;-141.59;100.00;61776.25;4949707;28;20270;-84
2022/01/19 00:12:03;;;;;;;14.63;6.27;;;;;;;-141.59;100.00;61776.25;4931494;29;20278;-84
2022/01/19 00:14:31;;;;;;;13.37;7.37;;;;;;;-141.59;100.00;61776.25;4920194;29;20202;-83
2022/01/19 00:16:59;;;;;;;12.20;6.23;;;;;;;-141.59;100.00;61776.25;4929137;29;20297;-84
2022/01/19 00:19:26;;;;;;;13.10;6.90;;;;;;;-141.59;100.00;61776.25;4925690;29;20231;-84
2022/01/19 00:21:53;;;;;;;10.53;6.40;;;;;;;-141.59;100.00;61776.25;4938382;28;20230;-84
2022/01/19 00:24:20;;;;;;;12.23;7.30;;;;;;;-141.59;100.00;61776.25;4942538;29;20206;-84
2022/01/19 00:26:47;;;;;;;15.40;7.57;;;;;;;-141.59;100.00;61776.25;4942086;28;20234;-85
2022/01/19 00:29:14;;;;;;;12.07;6.70;;;;;;;-141.59;100.00;61776.25;4917863;29;20207;-85
2022/01/19 00:31:41;;;;;;;13.13;7.43;;;;;;;-141.59;100.00;61776.25;4941774;29;20233;-84
2022/01/19 00:34:10;;;;;;;13.07;7.03;;;;;;;-141.59;100.00;61776.25;4926584;29;20225;-84
2022/01/19 00:36:37;;;;;;;13.23;7.23;;;;;;;-141.59;100.00;61776.25;4927412;29;20237;-83
2022/01/19 00:39:04;;;;;;;12.37;7.00;;;;;;;-141.59;100.00;61776.25;4921244;29;20213;-84
2022/01/19 00:41:32;;;;;;;12.40;7.63;;;;;;;-141.59;100.00;61776.25;4924079;29;20226;-84
2022/01/19 00:43:59;;;;;;;13.83;7.37;;;;;;;-141.59;100.00;61776.25;4920155;29;20226;-85
2022/01/19 00:46:26;;;;;;;17.77;7.83;;;;;;;-141.59;100.00;61776.25;4930609;29;20270;-84
2022/01/19 00:48:53;;;;;;;14.13;7.97;;;;;;;-141.59;100.00;61776.25;4944729;28;20384;-84
2022/01/19 00:51:21;;;;;;;14.07;7.07;;;;;;;-141.59;100.00;61776.25;4946093;28;20230;-84
2022/01/19 00:53:48;;;;;;;13.20;8.10;;;;;;;-141.59;100.00;61776.25;4922840;29;20207;-85
2022/01/19 00:56:15;;;;;;;16.80;8.50;;;;;;;-141.59;100.00;61776.25;4927380;29;20241;-85
2022/01/19 00:58:42;;;;;;;14.13;8.30;;;;;;;-141.59;100.00;61776.25;4941815;28;20224;-85
2022/01/19 01:01:09;;;;;;;16.90;9.83;;;;;;;-141.59;100.00;61776.25;4939532;29;20312;-84
2022/01/19 01:03:37;;;;;;;15.57;9.13;;;;;;;-141.59;100.00;61776.25;4931940;29;20238;-85
2022/01/19 01:06:04;;;;;;;18.53;10.83;;;;;;;-141.59;100.00;61776.25;4924205;29;20253;-84
2022/01/19 01:08:32;;;;;;;18.40;10.80;;;;;;;-141.59;100.00;61776.25;4935944;28;20238;-83
2022/01/19 01:10:59;;;;;;;20.77;12.13;;;;;;;-141.59;100.00;61776.25;4958041;28;20212;-84
2022/01/19 01:15:24;;;;;;;19.03;12.00;;;;;;;-141.59;100.00;61776.25;4939361;28;20273;-84
2022/01/19 01:16:18;;;;;;;24.57;12.30;;;;;;;-141.59;100.00;61776.25;4936159;28;20218;-84
2022/01/19 01:18:45;;;;;;;22.23;12.70;;;;;;;-141.59;100.00;61776.25;4955504;28;20206;-85
2022/01/19 01:21:12;;;;;;;22.13;13.20;;;;;;;-141.59;100.00;61776.25;4948372;28;20223;-84
2022/01/19 01:23:41;;;;;;;23.70;13.43;;;;;;;-141.59;100.00;61776.25;4960676;28;20218;-84
2022/01/19 01:26:10;;;;;;;22.07;13.13;;;;;;;-141.59;100.00;61776.25;4952965;28;20314;-85
2022/01/19 01:28:37;;;;;;;23.13;13.37;;;;;;;-141.59;100.00;61776.25;4943834;28;20206;-84
2022/01/19 01:31:07;;;;;;;21.17;12.57;;;;;;;-141.59;100.00;61776.25;4935110;28;20214;-86
2022/01/19 01:33:34;;;;;;;19.00;11.70;;;;;;;-141.59;100.00;61776.25;4942328;28;20205;-84
2022/01/19 01:36:01;;;;;;;21.63;11.27;;;;;;;-141.59;100.00;61776.25;4947102;28;20272;-84
2022/01/19 01:38:28;;;;;;;21.93;12.10;;;;;;;-141.59;100.00;61776.25;4947974;29;20209;-85
2022/01/19 01:40:57;;;;;;;20.13;11.30;;;;;;;-141.59;100.00;61776.25;4956944;28;20233;-85
2022/01/19 01:43:25;;;;;;;20.70;11.97;;;;;;;-141.59;100.00;61776.25;4948889;28;20221;-84
2022/01/19 01:45:57;;;;;;;19.93;11.63;;;;;;;-141.59;100.00;61776.25;4946125;28;20209;-86
2022/01/19 01:48:25;;;;;;;17.73;10.43;;;;;;;-141.59;100.00;61776.25;4939782;29;20515;-84
2022/01/19 01:53:52;;;;;;;17.00;9.70;;;;;;;-141.59;100.00;61776.25;4958904;28;20314;-84
2022/01/19 01:56:21;;;;;;;11.53;7.00;;;;;;;-141.59;100.00;61776.25;4938186;29;20217;-84
2022/01/19 01:58:52;;;;;;;11.57;6.80;;;;;;;-141.59;100.00;61776.25;4946908;28;20296;-85
2022/01/19 02:01:40;;;;;;;11.50;6.73;;;;;;;-141.59;100.00;61776.25;4947772;28;20233;-84
2022/01/19 02:04:13;;;;;;;12.93;6.77;;;;;;;-141.59;100.00;61776.25;4962110;28;20212;-85
2022/01/19 02:07:02;;;;;;;12.13;7.40;;;;;;;-141.59;100.00;61776.25;4952078;28;20336;-85
2022/01/19 02:09:35;;;;;;;14.53;9.10;;;;;;;-141.59;100.00;61776.25;4952410;28;20234;-84
2022/01/19 02:23:13;;;;;;;14.87;9.07;;;;;;;-141.59;100.00;61776.25;4956267;28;20198;-85
2022/01/19 02:25:43;;;;;;;17.07;9.20;;;;;;;-141.59;100.00;61776.25;4948933;28;20295;-85
2022/01/19 02:31:32;;;;;;;13.30;7.90;;;;;;;-141.59;100.00;61776.25;4958529;28;20214;-84
2022/01/19 02:36:53;;;;;;;17.53;10.10;;;;;;;-141.59;100.00;61776.25;4944326;28;20221;-84
2022/01/19 02:42:10;;;;;;;17.40;10.17;;;;;;;-141.59;100.00;61776.25;4940932;28;20229;-84
2022/01/19 02:50:06;;;;;;;16.30;9.33;;;;;;;-141.59;100.00;61776.25;4955583;28;20255;-83
2022/01/19 02:52:34;;;;;;;16.70;9.20;;;;;;;-141.59;100.00;61776.25;4945280;29;20217;-84
2022/01/19 02:55:01;;;;;;;17.40;9.63;;;;;;;-141.59;100.00;61776.25;4946014;29;20209;-83
2022/01/19 02:57:35;;;;;;;18.00;9.30;;;;;;;-141.59;100.00;61776.25;4961794;28;20209;-84
2022/01/19 03:11:00;;;;;;;20.50;10.87;;;;;;;-141.59;100.00;61776.25;4944776;28;20216;-84
2022/01/19 03:13:27;;;;;;;17.73;10.63;;;;;;;-141.59;100.00;61776.25;4961005;28;20201;-84
2022/01/19 03:15:54;;;;;;;17.80;10.70;;;;;;;-141.59;100.00;61776.25;4939978;28;20209;-84
2022/01/19 03:18:21;;;;;;;17.40;10.40;;;;;;;-141.59;100.00;61776.25;4944751;28;20211;-83
2022/01/19 03:20:48;;;;;;;21.93;10.60;;;;;;;-141.59;100.00;61776.25;4940294;28;20222;-83
2022/01/19 03:23:20;;;;;;;16.40;9.57;;;;;;;-141.59;100.00;61776.25;4948121;28;20201;-84
2022/01/19 03:25:47;;;;;;;19.43;11.00;;;;;;;-141.59;100.00;61776.25;4958731;28;20206;-84
2022/01/19 03:28:15;;;;;;;20.67;10.63;;;;;;;-141.59;100.00;61776.25;4944195;28;20213;-85
2022/01/19 03:30:42;;;;;;;18.57;9.90;;;;;;;-141.59;100.00;61776.25;4945225;28;20210;-85
2022/01/19 03:33:10;;;;;;;20.00;10.87;;;;;;;-141.59;100.00;61776.25;4961966;28;20210;-85
2022/01/19 03:35:38;;;;;;;21.70;11.47;;;;;;;-141.59;100.00;61776.25;4950226;28;20304;-84
2022/01/19 03:38:06;;;;;;;20.63;11.17;;;;;;;-141.59;100.00;61776.25;4961103;28;20232;-83
2022/01/19 03:40:34;;;;;;;19.33;10.57;;;;;;;-141.59;100.00;61776.25;4946990;28;20224;-84
2022/01/19 03:43:02;;;;;;;20.17;11.27;;;;;;;-141.59;100.00;61776.25;4950638;28;20205;-84
2022/01/19 03:45:53;;;;;;;18.03;10.00;;;;;;;-141.59;100.00;61776.25;4942254;28;20210;-84
2022/01/19 03:48:35;;;;;;;20.10;10.83;;;;;;;-141.59;100.00;61776.25;4945608;28;20213;-85
2022/01/19 03:51:03;;;;;;;21.17;11.20;;;;;;;-141.59;100.00;61776.25;4933141;28;20205;-84
2022/01/19 03:53:30;;;;;;;19.33;10.80;;;;;;;-141.59;100.00;61776.25;4935293;28;20236;-84
2022/01/19 03:55:59;;;;;;;19.07;11.10;;;;;;;-141.59;100.00;61776.25;4935239;28;20232;-84
2022/01/19 03:58:27;;;;;;;18.47;10.53;;;;;;;-141.59;100.00;61776.25;4939320;28;20206;-85
2022/01/19 04:00:57;;;;;;;18.83;10.43;;;;;;;-141.59;100.00;61776.25;4938938;29;20301;-85
2022/01/19 04:03:35;;;;;;;16.90;9.77;;;;;;;-141.59;100.00;61776.25;4935955;28;20210;-84
2022/01/19 04:06:14;;;;;;;17.50;10.30;;;;;;;-141.59;100.00;61776.25;4955713;28;20237;-84
2022/01/19 04:08:41;;;;;;;18.37;9.80;;;;;;;-141.59;100.00;61776.25;4943800;28;20315;-84
2022/01/19 04:11:10;;;;;;;16.97;9.67;;;;;;;-141.59;100.00;61776.25;4943906;28;20216;-85
2022/01/19 04:13:57;;;;;;;17.83;10.00;;;;;;;-141.59;100.00;61776.25;4938354;28;20269;-84
2022/01/19 04:16:25;;;;;;;18.53;9.87;;;;;;;-141.59;100.00;61776.25;4954661;28;20241;-84
2022/01/19 04:19:01;;;;;;;15.93;8.80;;;;;;;-141.59;100.00;61776.25;4932117;29;20217;-84
2022/01/19 04:21:28;;;;;;;14.10;9.03;;;;;;;-141.59;100.00;61776.25;4944212;29;20236;-85
2022/01/19 04:23:55;;;;;;;24.17;10.83;;;;;;;-141.59;100.00;61776.25;4944964;28;20206;-83
2022/01/19 04:26:24;;;;;;;18.80;10.50;;;;;;;-141.59;100.00;61776.25;4957052;28;20210;-84
2022/01/19 04:28:51;;;;;;;18.10;10.07;;;;;;;-141.59;100.00;61776.25;4960710;28;20216;-86
2022/01/19 04:31:18;;;;;;;15.43;9.93;;;;;;;-141.59;100.00;61776.25;4960545;28;20198;-84
2022/01/19 04:33:45;;;;;;;20.77;10.27;;;;;;;-141.59;100.00;61776.25;4937127;29;20339;-83
2022/01/19 04:36:27;;;;;;;17.17;9.90;;;;;;;-141.59;100.00;61776.25;4946354;28;20300;-85
2022/01/19 04:44:40;;;;;;;15.83;9.13;;;;;;;-141.59;100.00;61776.25;4938526;28;20236;-84
2022/01/19 04:47:51;;;;;;;15.77;9.53;;;;;;;-141.59;100.00;61776.25;4949786;28;20224;-85
2022/01/19 05:04:34;;;;;;;17.57;8.77;;;;;;;-141.59;100.00;61776.25;4949045;28;20280;-85
2022/01/19 05:07:17;;;;;;;17.00;9.97;;;;;;;-141.59;100.00;61776.25;4962939;28;20274;-84
2022/01/19 05:10:05;;;;;;;20.63;10.37;;;;;;;-141.59;100.00;61776.25;4939465;28;20221;-84
2022/01/19 05:15:27;;;;;;;29.53;14.13;;;;;;;-141.59;100.00;61776.25;4908328;29;20241;-84
2022/01/19 05:17:54;;;;;;;16.90;9.30;;;;;;;-141.59;100.00;61776.25;4941257;29;20202;-85
2022/01/19 05:20:21;;;;;;;18.50;10.47;;;;;;;-141.59;100.00;61776.25;4935515;29;20206;-84
2022/01/19 05:22:48;;;;;;;19.10;10.10;;;;;;;-141.59;100.00;61776.25;4956809;28;20237;-84
2022/01/19 05:25:19;;;;;;;18.13;10.20;;;;;;;-141.59;100.00;61776.25;4947293;28;20213;-84
2022/01/19 05:27:50;;;;;;;18.17;10.17;;;;;;;-141.59;100.00;61776.25;4941711;28;20213;-84
2022/01/19 05:30:19;;;;;;;17.07;10.10;;;;;;;-141.59;100.00;61776.25;4943381;28;20197;-84
2022/01/19 05:32:49;;;;;;;17.20;9.80;;;;;;;-141.59;100.00;61776.25;4941554;28;20232;-82
2022/01/19 05:35:17;;;;;;;17.60;9.77;;;;;;;-141.59;100.00;61776.25;4939462;28;20198;-83
2022/01/19 05:37:48;;;;;;;15.00;9.03;;;;;;;-141.59;100.00;61776.25;4949178;28;20201;-81
2022/01/19 05:40:18;;;;;;;19.60;10.07;;;;;;;-141.59;100.00;61776.25;4944826;28;20212;-83
2022/01/19 05:42:52;;;;;;;18.07;10.00;;;;;;;-141.59;100.00;61776.25;4938827;28;20255;-81
2022/01/19 05:45:19;;;;;;;19.07;10.03;;;;;;;-141.59;100.00;61776.25;4949827;28;20205;-83
2022/01/19 05:47:48;;;;;;;20.03;10.67;;;;;;;-141.59;100.00;61776.25;4947198;28;20264;-82
2022/01/19 05:50:16;;;;;;;22.53;11.43;;;;;;;-141.59;100.00;61776.25;4958587;28;20218;-82
2022/01/19 05:52:48;;;;;;;19.97;10.60;;;;;;;-141.59;100.00;61776.25;4952980;28;20207;-82
2022/01/19 05:55:16;;;;;;;19.90;11.33;;;;;;;-141.59;100.00;61776.25;4938057;28;20207;-82
2022/01/19 05:57:43;;;;;;;21.13;12.03;;;;;;;-141.59;100.00;61776.25;4943547;28;20210;-82
2022/01/19 06:00:11;;;;;;;19.00;10.70;;;;;;;-141.59;100.00;61776.25;4960389;28;20284;-82
2022/01/19 06:02:50;;;;;;;19.83;10.03;;;;;;;-141.59;100.00;61776.25;4942371;28;20234;-82
2022/01/19 06:05:25;;;;;;;19.23;10.47;;;;;;;-141.59;100.00;61776.25;4960781;28;20219;-82
2022/01/19 06:08:12;;;;;;;17.17;9.80;;;;;;;-141.59;100.00;61776.25;4946652;28;20232;-82
2022/01/19 06:10:46;;;;;;;16.97;10.10;;;;;;;-141.59;100.00;61776.25;4934637;28;20213;-83
2022/01/19 06:13:16;;;;;;;18.13;9.90;;;;;;;-141.59;100.00;61776.25;4946749;28;20220;-83
2022/01/19 06:15:44;;;;;;;22.33;10.80;;;;;;;-141.59;100.00;61776.25;4955552;28;20226;-84
2022/01/19 06:18:13;;;;;;;18.73;10.40;;;;;;;-141.59;100.00;61776.25;4935992;28;20214;-84
2022/01/19 06:20:41;;;;;;;15.27;8.73;;;;;;;-141.59;100.00;61776.25;4956684;28;20536;-84
2022/01/19 06:23:09;;;;;;;14.67;9.20;;;;;;;-141.59;100.00;61776.25;4931587;28;20245;-83
2022/01/19 06:25:43;;;;;;;19.17;10.47;;;;;;;-141.59;100.00;61776.25;4957709;28;20213;-84
2022/01/19 06:28:11;;;;;;;17.87;9.63;;;;;;;-141.59;100.00;61776.25;4934893;28;20218;-83
2022/01/19 06:30:38;;;;;;;17.90;10.03;;;;;;;-141.59;100.00;61776.25;4943448;28;20204;-84
2022/01/19 06:33:06;;;;;;;18.53;9.77;;;;;;;-141.59;100.00;61776.25;4945389;28;20273;-84
2022/01/19 06:35:35;;;;;;;17.83;10.27;;;;;;;-141.59;100.00;61776.25;4959789;28;20209;-84
2022/01/19 06:38:13;;;;;;;16.07;9.77;;;;;;;-141.59;100.00;61776.25;4948157;28;20224;-83
2022/01/19 06:40:53;;;;;;;18.77;10.03;;;;;;;-141.59;100.00;61776.25;4947495;28;20205;-84
2022/01/19 06:43:20;;;;;;;21.13;10.70;;;;;;;-141.59;100.00;61776.25;4956268;28;20242;-83
2022/01/19 06:45:47;;;;;;;17.00;10.43;;;;;;;-141.59;100.00;61776.25;4940962;28;20231;-84
2022/01/19 06:48:15;;;;;;;17.53;10.60;;;;;;;-141.59;100.00;61776.25;4953878;28;20205;-83
2022/01/19 06:50:43;;;;;;;18.50;9.63;;;;;;;-141.59;100.00;61776.25;4941874;28;20214;-83
2022/01/19 06:53:11;;;;;;;19.50;10.07;;;;;;;-141.59;100.00;61776.25;4945409;28;20210;-84
2022/01/19 06:55:39;;;;;;;20.43;10.60;;;;;;;-141.59;100.00;61776.25;4931895;28;20209;-83
2022/01/19 06:58:06;;;;;;;19.17;10.87;;;;;;;-141.59;100.00;61776.25;4957049;28;20218;-83
2022/01/19 07:00:54;;;;;;;21.53;11.10;;;;;;;-141.59;100.00;61776.25;4944949;28;20198;-83
2022/01/19 07:03:38;;;;;;;18.43;10.83;;;;;;;-141.59;100.00;61776.25;4945091;29;20206;-84
2022/01/19 07:06:22;;;;;;;23.83;13.57;;;;;;;-141.59;100.00;61776.25;4938062;28;20245;-82
2022/01/19 07:09:09;;;;;;;24.33;13.33;;;;;;;-141.59;100.00;61776.25;4962373;28;20232;-83
2022/01/19 07:11:36;;;;;;;26.63;14.03;;;;;;;-141.59;100.00;61776.25;4948597;28;20216;-83
2022/01/19 07:14:04;;;;;;;23.20;12.23;;;;;;;-141.59;100.00;61776.25;4951822;28;20288;-83
2022/01/19 07:16:32;;;;;;;21.57;12.30;;;;;;;-141.59;100.00;61776.25;4953829;28;20239;-82
2022/01/19 07:18:59;;;;;;;20.47;12.20;;;;;;;-141.59;100.00;61776.25;4949772;28;20201;-83
2022/01/19 07:21:27;;;;;;;22.07;12.13;;;;;;;-141.59;100.00;61776.25;4946727;28;20208;-83
2022/01/19 07:24:00;;;;;;;19.33;11.17;;;;;;;-141.59;100.00;61776.25;4932948;28;20205;-84
2022/01/19 07:26:27;;;;;;;19.17;11.17;;;;;;;-141.59;100.00;61776.25;4961541;28;20274;-81
2022/01/19 07:28:55;;;;;;;22.23;12.20;;;;;;;-141.59;100.00;61776.25;4945056;28;20208;-82
2022/01/19 07:31:34;;;;;;;23.20;13.17;;;;;;;-141.59;100.00;61776.25;4959061;28;20247;-81
2022/01/19 07:34:06;;;;;;;19.50;11.67;;;;;;;-141.59;100.00;61776.25;4949062;28;20298;-81
2022/01/19 07:36:36;;;;;;;19.57;11.87;;;;;;;-141.59;100.00;61776.25;4947896;28;20200;-81
2022/01/19 07:39:04;;;;;;;21.83;12.37;;;;;;;-141.59;100.00;61776.25;4963135;28;20235;-82
2022/01/19 07:41:32;;;;;;;21.70;11.77;;;;;;;-141.59;100.00;61776.25;4939454;28;20208;-82
2022/01/19 07:44:17;;;;;;;30.50;16.30;;;;;;;-141.59;100.00;61776.25;4963088;28;20237;-81
2022/01/19 07:47:03;;;;;;;24.47;14.30;;;;;;;-141.59;100.00;61776.25;4965806;28;20221;-81
2022/01/19 07:49:57;;;;;;;22.83;14.03;;;;;;;-141.59;100.00;61776.25;4955160;28;20220;-82
2022/01/19 07:52:44;;;;;;;23.70;13.33;;;;;;;-141.59;100.00;61776.25;4958969;28;20224;-82
2022/01/19 07:55:20;;;;;;;23.13;12.87;;;;;;;-141.59;100.00;61776.25;4949779;28;20208;-83
2022/01/19 07:57:52;;;;;;;22.40;12.80;;;;;;;-141.59;100.00;61776.25;4939961;28;20207;-82
2022/01/19 08:00:33;;;;;;;30.47;15.87;;;;;;;-141.59;100.00;61776.25;4959719;28;20215;-82
2022/01/19 08:03:20;;;;;;;28.17;15.47;;;;;;;-141.59;100.00;61776.25;4964819;28;20224;-82
2022/01/19 08:06:09;;;;;;;28.37;16.17;;;;;;;-141.59;100.00;61776.25;4947249;28;20330;-82
2022/01/19 08:08:41;;;;;;;26.17;14.43;;;;;;;-141.59;100.00;61776.25;4949463;28;20232;-81
2022/01/19 08:11:09;;;;;;;28.83;14.47;;;;;;;-141.59;100.00;61776.25;4966598;28;20213;-84
2022/01/19 08:13:40;;;;;;;25.23;13.37;;;;;;;-141.59;100.00;61776.25;4955518;28;20219;-82
2022/01/19 08:16:07;;;;;;;24.10;12.60;;;;;;;-141.59;100.00;61776.25;4951621;28;20344;-82
2022/01/19 08:18:37;;;;;;;22.47;12.63;;;;;;;-141.59;100.00;61776.25;4961883;28;20268;-81
2022/01/19 08:21:04;;;;;;;20.97;12.60;;;;;;;-141.59;100.00;61776.25;4946181;28;20209;-81
2022/01/19 08:23:42;;;;;;;24.33;13.03;;;;;;;-141.59;100.00;61776.25;4949722;28;20248;-81
2022/01/19 08:26:13;;;;;;;20.33;12.57;;;;;;;-141.59;100.00;61776.25;4947941;28;20212;-83
2022/01/19 08:28:44;;;;;;;23.77;12.37;;;;;;;-141.59;100.00;61776.25;4939973;28;20307;-81
2022/01/19 08:31:12;;;;;;;22.87;12.83;;;;;;;-141.59;100.00;61776.25;4968974;28;20200;-82
2022/01/19 08:33:57;;;;;;;22.70;12.33;;;;;;;-141.59;100.00;61776.25;4966023;28;20330;-82
2022/01/19 08:36:39;;;;;;;20.53;11.07;;;;;;;-141.59;100.00;61776.25;4948319;28;20307;-81
2022/01/19 08:39:13;;;;;;;23.27;12.60;;;;;;;-141.59;100.00;61776.25;4959084;28;20209;-82
2022/01/19 08:41:43;;;;;;;22.90;12.10;;;;;;;-141.59;100.00;61776.25;4945675;28;20300;-81
2022/01/19 08:44:11;;;;;;;21.57;12.43;;;;;;;-141.59;100.00;61776.25;4954676;28;20224;-81
2022/01/19 08:46:41;;;;;;;20.63;11.30;;;;;;;-141.59;100.00;61776.25;4945250;28;20208;-82
2022/01/19 08:49:40;;;;;;;24.83;12.80;;;;;;;-141.59;100.00;61776.25;4967433;28;20288;-82
2022/01/19 08:52:35;;;;;;;21.77;11.50;;;;;;;-141.59;100.00;61776.25;4939404;28;20248;-81
2022/01/19 08:55:16;;;;;;;22.37;11.77;;;;;;;-141.59;100.00;61776.25;4962865;28;20296;-81
2022/01/19 08:57:44;;;;;;;23.80;11.70;;;;;;;-141.59;100.00;61776.25;4939996;28;20206;-82
2022/01/19 09:00:14;;;;;;;23.33;13.17;;;;;;;-141.59;100.00;61776.25;4951140;28;20216;-82
2022/01/19 09:02:41;;;;;;;20.67;11.97;;;;;;;-141.59;100.00;61776.25;4938478;28;20229;-81
2022/01/19 09:05:09;;;;;;;24.33;13.43;;;;;;;-141.59;100.00;61776.25;4959922;28;20206;-83
2022/01/19 09:07:37;;;;;;;26.43;13.40;;;;;;;-141.59;100.00;61776.25;4948462;28;20316;-82
2022/01/19 09:10:07;;;;;;;22.83;12.27;;;;;;;-141.59;100.00;61776.25;4941467;28;20210;-82
2022/01/19 09:12:36;;;;;;;20.43;11.60;;;;;;;-141.59;100.00;61776.25;4960965;28;20276;-82
2022/01/19 09:15:03;;;;;;;22.07;13.43;;;;;;;-141.59;100.00;61776.25;4967492;28;20378;-82
2022/01/19 09:17:31;;;;;;;25.23;12.17;;;;;;;-141.59;100.00;61776.25;4939391;28;20214;-81
2022/01/19 09:19:58;;;;;;;25.87;13.23;;;;;;;-141.59;100.00;61776.25;4953643;28;20294;-82
2022/01/19 09:22:25;;;;;;;24.73;14.03;;;;;;;-141.59;100.00;61776.25;4939883;28;20217;-82
2022/01/19 09:24:53;;;;;;;28.37;14.30;;;;;;;-141.59;100.00;61776.25;4947523;28;20213;-83
2022/01/19 09:27:21;;;;;;;23.93;13.83;;;;;;;-141.59;100.00;61776.25;4955247;28;20303;-82
2022/01/19 09:29:50;;;;;;;26.90;14.00;;;;;;;-141.59;100.00;61776.25;4937765;28;20201;-82
2022/01/19 09:32:17;;;;;;;23.87;13.53;;;;;;;-141.59;100.00;61776.25;4965513;28;20221;-82
2022/01/19 09:34:49;;;;;;;25.43;13.83;;;;;;;-141.59;100.00;61776.25;4943455;28;20236;-82
2022/01/19 09:37:17;;;;;;;25.27;14.17;;;;;;;-141.59;100.00;61776.25;4949228;28;20256;-82
2022/01/19 09:39:44;;;;;;;24.03;14.37;;;;;;;-141.59;100.00;61776.25;4967846;28;20235;-82
2022/01/19 09:42:12;;;;;;;26.80;14.83;;;;;;;-141.59;100.00;61776.25;4958685;28;20200;-83
2022/01/19 09:44:39;;;;;;;27.40;14.70;;;;;;;-141.59;100.00;61776.25;4949906;28;20238;-82
2022/01/19 09:47:09;;;;;;;26.60;14.50;;;;;;;-141.59;100.00;61776.25;4942981;28;20217;-82
2022/01/19 09:49:36;;;;;;;27.07;14.60;;;;;;;-141.59;100.00;61776.25;4961702;28;20205;-82
2022/01/19 09:52:04;;;;;;;25.90;13.03;;;;;;;-141.59;100.00;61776.25;4966895;28;20276;-82
2022/01/19 09:54:31;;;;;;;24.20;13.57;;;;;;;-141.59;100.00;61776.25;4953269;28;20259;-82
2022/01/19 09:56:58;;;;;;;23.73;14.03;;;;;;;-141.59;100.00;61776.25;4965860;28;20209;-83
2022/01/19 09:59:26;;;;;;;26.63;13.80;;;;;;;-141.59;100.00;61776.25;4944180;28;20213;-81
2022/01/19 10:01:56;;;;;;;25.03;14.37;;;;;;;-141.59;100.00;61776.25;4962834;28;20197;-82
2022/01/19 10:04:26;;;;;;;24.97;14.50;;;;;;;-141.59;100.00;61776.25;4949887;28;20257;-83
2022/01/19 10:07:16;;;;;;;25.77;14.40;;;;;;;-141.59;100.00;61776.25;4958062;28;20244;-82
2022/01/19 10:09:52;;;;;;;26.53;14.27;;;;;;;-141.59;100.00;61776.25;4923334;29;20289;-82
2022/01/19 10:18:14;;;;;;;24.17;13.70;;;;;;;-141.59;100.00;61776.25;4919758;29;20258;-82
2022/01/19 10:20:44;;;;;;;26.40;14.47;;;;;;;-141.59;100.00;61776.25;4919746;29;20217;-81
2022/01/19 10:23:36;;;;;;;24.10;14.60;;;;;;;-141.59;100.00;61776.25;4920130;29;20427;-82
2022/01/19 10:26:05;;;;;;;27.00;13.27;;;;;;;-141.59;100.00;61776.25;4941654;29;20214;-82
2022/01/19 10:28:32;;;;;;;24.60;14.07;;;;;;;-141.59;100.00;61776.25;4944301;29;20218;-82
2022/01/19 10:31:02;;;;;;;24.63;13.97;;;;;;;-141.59;100.00;61776.25;4922691;29;20202;-82
2022/01/19 10:33:29;;;;;;;23.93;13.53;;;;;;;-141.59;100.00;61776.25;4923837;29;20265;-81
2022/01/19 10:35:59;;;;;;;25.47;14.37;;;;;;;-141.59;100.00;61776.25;4922163;29;20217;-82
2022/01/19 10:38:29;;;;;;;25.77;14.90;;;;;;;-141.59;100.00;61776.25;4938214;28;20310;-83
2022/01/19 10:41:12;;;;;;;24.03;13.80;;;;;;;-141.59;100.00;61776.25;4924011;29;20226;-83
2022/01/19 10:43:41;;;;;;;27.07;14.80;;;;;;;-141.59;100.00;61776.25;4917832;29;20226;-82
2022/01/19 10:46:29;;;;;;;21.53;13.13;;;;;;;-141.59;100.00;61776.25;4927663;29;20213;-82
2022/01/19 10:49:04;;;;;;;25.43;13.93;;;;;;;-141.59;100.00;61776.25;4942756;29;20221;-82
2022/01/19 10:51:36;;;;;;;24.53;14.87;;;;;;;-141.59;100.00;61776.25;4926339;29;20214;-82
2022/01/19 10:54:11;;;;;;;26.27;13.83;;;;;;;-141.59;100.00;61776.25;4922585;29;20233;-84
2022/01/19 10:56:39;;;;;;;27.93;14.77;;;;;;;-141.59;100.00;61776.25;4916214;29;20202;-82
2022/01/19 10:59:09;;;;;;;27.70;15.27;;;;;;;-141.59;100.00;61776.25;4923922;29;20214;-82
2022/01/19 11:01:43;;;;;;;25.20;14.80;;;;;;;-141.59;100.00;61776.25;4923618;29;20215;-83
2022/01/19 11:04:26;;;;;;;30.47;14.90;;;;;;;-141.59;100.00;61776.25;4925504;29;20225;-82
2022/01/19 11:06:58;;;;;;;28.03;14.97;;;;;;;-141.59;100.00;61776.25;4921236;29;20233;-82
2022/01/19 11:09:27;;;;;;;25.10;14.67;;;;;;;-141.59;100.00;61776.25;4944332;28;20299;-84
2022/01/19 11:11:57;;;;;;;26.60;15.33;;;;;;;-141.59;100.00;61776.25;4946088;29;20213;-83
2022/01/19 11:14:26;;;;;;;26.93;15.07;;;;;;;-141.59;100.00;61776.25;4955759;28;20210;-82
2022/01/19 11:16:53;;;;;;;25.27;15.60;;;;;;;-141.59;100.00;61776.25;4957893;28;20206;-83
2022/01/19 11:19:22;;;;;;;26.27;14.83;;;;;;;-141.59;100.00;61776.25;4961015;28;20277;-83
2022/01/19 11:22:06;;;;;;;26.43;16.00;;;;;;;-141.59;100.00;61776.25;4943961;28;20390;-84
2022/01/19 11:24:44;;;;;;;26.43;14.40;;;;;;;-141.59;100.00;61776.25;4938987;28;20225;-83
2022/01/19 11:27:12;;;;;;;27.73;15.63;;;;;;;-141.59;100.00;61776.25;4936356;29;20436;-82
2022/01/19 11:29:40;;;;;;;24.60;14.73;;;;;;;-141.59;100.00;61776.25;4941488;28;20202;-84
2022/01/19 11:32:17;;;;;;;24.37;15.10;;;;;;;-141.59;100.00;61776.25;4934381;28;20214;-83
2022/01/19 11:34:48;;;;;;;25.03;16.17;;;;;;;-141.59;100.00;61776.25;4939872;28;20209;-83
2022/01/19 11:37:32;;;;;;;26.30;16.30;;;;;;;-141.59;100.00;61776.25;4938712;28;20259;-83
2022/01/19 11:40:06;;;;;;;29.77;16.30;;;;;;;-141.59;100.00;61776.25;4950319;28;20216;-84
2022/01/19 11:42:34;;;;;;;29.57;16.07;;;;;;;-141.59;100.00;61776.25;4960864;28;20307;-84
2022/01/19 11:45:02;;;;;;;35.23;17.20;;;;;;;-141.59;100.00;61776.25;4946838;28;20213;-83
2022/01/19 11:47:31;;;;;;;22.83;13.33;;;;;;;-141.59;100.00;61776.25;4949536;28;20248;-83
2022/01/19 11:50:00;;;;;;;24.67;13.60;;;;;;;-141.59;100.00;61776.25;4945789;28;20205;-85
2022/01/19 11:53:10;;;;;;;31.37;14.17;;;;;;;-141.59;100.00;61776.25;4953399;28;20233;-84
2022/01/19 11:55:38;;;;;;;23.37;13.63;;;;;;;-141.59;100.00;61776.25;4960384;28;20212;-84
2022/01/19 11:58:15;;;;;;;25.20;14.23;;;;;;;-141.59;100.00;61776.25;4950306;28;20265;-83
2022/01/19 12:00:44;;;;;;;25.47;15.03;;;;;;;-141.59;100.00;61776.25;4957704;28;20303;-83
2022/01/19 12:03:21;;;;;;;23.23;14.67;;;;;;;-141.59;100.00;61776.25;4945462;29;20230;-83
2022/01/19 12:05:51;;;;;;;23.37;14.37;;;;;;;-141.59;100.00;61776.25;4946224;29;20221;-83
2022/01/19 12:08:30;;;;;;;30.73;15.67;;;;;;;-141.59;100.00;61776.25;4941756;29;20241;-82
2022/01/19 12:11:11;;;;;;;29.73;16.90;;;;;;;-141.59;100.00;61776.25;4942929;29;20205;-85
2022/01/19 12:19:26;;;;;;;28.27;14.13;;;;;;;-141.59;100.00;61776.25;4958351;28;20309;-84
2022/01/19 12:22:00;;;;;;;25.43;14.13;;;;;;;-141.59;100.00;61776.25;4945075;29;20220;-84
2022/01/19 12:24:32;;;;;;;24.70;14.83;;;;;;;-141.59;100.00;61776.25;4947151;29;20225;-84
2022/01/19 12:27:03;;;;;;;25.17;15.40;;;;;;;-141.59;100.00;61776.25;4962167;28;20210;-83
2022/01/19 12:29:48;;;;;;;25.20;14.63;;;;;;;-141.59;100.00;61776.25;4963688;28;20237;-83
2022/01/19 12:32:37;;;;;;;24.17;14.73;;;;;;;-141.59;100.00;61776.25;4947424;28;20439;-83